Terminal Aerodrome Forecast
Issued by NWS Cleveland, OH

Home | Current Version | Previous Version | Graphics & Text | Print | Product List | Glossary On
Versions: 1 2 3 4 5 6 7 8 9 10 11 12 13 14 15 16
000
FTUS41 KCLE 200537
TAFYNG
TAF
KYNG 200537Z 2006/2106 00000KT P6SM SKC
     FM200900 00000KT P6SM SKC
      TEMPO 2010/2012 2SM BR BKN002
     FM201700 VRB03KT P6SM FEW050=

USA.gov is the U.S. government's official web portal to all federal, state and local government web resources and services.